sensor_id;sensor_type;location;lat;lon;timestamp;pressure;altitude;pressure_sealevel;temperature;humidity
50368;BME280;36281;34.132;-118.018;2023-03-17T00:02:15;100118.50;;;16.82;58.60
50368;BME280;36281;34.132;-118.018;2023-03-17T00:04:45;100181.09;;;17.02;58.11
50368;BME280;36281;34.132;-118.018;2023-03-17T00:07:16;100169.66;;;17.07;58.48
50368;BME280;36281;34.132;-118.018;2023-03-17T00:09:47;100164.53;;;17.05;59.07
50368;BME280;36281;34.132;-118.018;2023-03-17T00:12:16;100158.56;;;16.98;58.71
50368;BME280;36281;34.132;-118.018;2023-03-17T00:14:46;100162.63;;;17.01;59.76
50368;BME280;36281;34.132;-118.018;2023-03-17T00:17:15;100156.97;;;16.97;59.57
50368;BME280;36281;34.132;-118.018;2023-03-17T00:19:44;100142.44;;;16.93;60.48
50368;BME280;36281;34.132;-118.018;2023-03-17T00:22:16;100136.41;;;16.81;62.40
50368;BME280;36281;34.132;-118.018;2023-03-17T00:24:47;100142.56;;;16.82;64.07
50368;BME280;36281;34.132;-118.018;2023-03-17T00:27:17;100149.94;;;16.74;64.40
50368;BME280;36281;34.132;-118.018;2023-03-17T00:29:46;100148.75;;;16.70;63.37
50368;BME280;36281;34.132;-118.018;2023-03-17T00:32:16;100139.63;;;16.66;61.82
50368;BME280;36281;34.132;-118.018;2023-03-17T00:34:47;100152.16;;;16.66;62.21
50368;BME280;36281;34.132;-118.018;2023-03-17T00:37:16;100144.97;;;16.66;61.67
50368;BME280;36281;34.132;-118.018;2023-03-17T00:39:47;100144.97;;;16.66;61.17
50368;BME280;36281;34.132;-118.018;2023-03-17T00:42:16;100162.66;;;16.67;60.17
50368;BME280;36281;34.132;-118.018;2023-03-17T00:44:45;100165.53;;;16.66;60.88
50368;BME280;36281;34.132;-118.018;2023-03-17T00:47:14;100163.63;;;16.61;61.17
50368;BME280;36281;34.132;-118.018;2023-03-17T00:49:44;100158.34;;;16.49;61.68
50368;BME280;36281;34.132;-118.018;2023-03-17T00:52:13;100176.59;;;16.52;62.60
50368;BME280;36281;34.132;-118.018;2023-03-17T00:54:43;100181.03;;;16.47;64.05
50368;BME280;36281;34.132;-118.018;2023-03-17T00:57:14;100185.72;;;16.40;65.09
50368;BME280;36281;34.132;-118.018;2023-03-17T00:59:43;100192.13;;;16.39;65.55
50368;BME280;36281;34.132;-118.018;2023-03-17T01:02:12;100195.06;;;16.37;65.73
50368;BME280;36281;34.132;-118.018;2023-03-17T01:04:41;100192.59;;;16.36;66.85
50368;BME280;36281;34.132;-118.018;2023-03-17T01:07:26;100176.09;;;16.22;67.90
50368;BME280;36281;34.132;-118.018;2023-03-17T01:09:56;100197.13;;;16.35;68.72
50368;BME280;36281;34.132;-118.018;2023-03-17T01:12:26;100196.25;;;16.29;68.03
50368;BME280;36281;34.132;-118.018;2023-03-17T01:14:56;100203.13;;;16.25;66.61
50368;BME280;36281;34.132;-118.018;2023-03-17T01:17:25;100205.47;;;16.22;67.66
50368;BME280;36281;34.132;-118.018;2023-03-17T01:19:54;100192.25;;;16.15;66.83
50368;BME280;36281;34.132;-118.018;2023-03-17T01:22:23;100207.72;;;16.13;68.31
50368;BME280;36281;34.132;-118.018;2023-03-17T01:24:53;100212.25;;;16.13;67.46
50368;BME280;36281;34.132;-118.018;2023-03-17T01:27:22;100217.84;;;16.11;68.33
50368;BME280;36281;34.132;-118.018;2023-03-17T01:29:54;100219.38;;;16.07;68.22
50368;BME280;36281;34.132;-118.018;2023-03-17T01:32:23;100226.00;;;16.05;67.24
50368;BME280;36281;34.132;-118.018;2023-03-17T01:34:53;100198.88;;;15.84;68.23
50368;BME280;36281;34.132;-118.018;2023-03-17T01:37:22;100229.16;;;16.01;68.79
50368;BME280;36281;34.132;-118.018;2023-03-17T01:39:51;100226.38;;;15.96;69.17
50368;BME280;36281;34.132;-118.018;2023-03-17T01:42:20;100231.38;;;15.93;69.84
50368;BME280;36281;34.132;-118.018;2023-03-17T01:44:59;100223.19;;;15.83;69.48
50368;BME280;36281;34.132;-118.018;2023-03-17T01:47:28;100229.31;;;15.83;69.67
50368;BME280;36281;34.132;-118.018;2023-03-17T01:50:05;100241.06;;;15.82;70.44
50368;BME280;36281;34.132;-118.018;2023-03-17T01:52:37;100240.72;;;15.79;71.04
50368;BME280;36281;34.132;-118.018;2023-03-17T01:55:10;100233.41;;;15.74;71.40
50368;BME280;36281;34.132;-118.018;2023-03-17T01:57:44;100233.88;;;15.71;70.95
50368;BME280;36281;34.132;-118.018;2023-03-17T02:00:18;100229.03;;;15.68;70.36
50368;BME280;36281;34.132;-118.018;2023-03-17T02:02:49;100228.66;;;15.64;70.74
50368;BME280;36281;34.132;-118.018;2023-03-17T02:05:20;100231.34;;;15.64;71.38
50368;BME280;36281;34.132;-118.018;2023-03-17T02:07:50;100216.94;;;15.54;71.48
50368;BME280;36281;34.132;-118.018;2023-03-17T02:10:20;100234.69;;;15.60;71.13
50368;BME280;36281;34.132;-118.018;2023-03-17T02:12:54;100228.53;;;15.59;71.59
50368;BME280;36281;34.132;-118.018;2023-03-17T02:15:35;100230.66;;;15.57;71.76
50368;BME280;36281;34.132;-118.018;2023-03-17T02:18:05;100242.34;;;15.56;71.69
50368;BME280;36281;34.132;-118.018;2023-03-17T02:23:44;100256.44;;;15.51;73.37
50368;BME280;36281;34.132;-118.018;2023-03-17T02:26:14;100258.50;;;15.49;74.08
50368;BME280;36281;34.132;-118.018;2023-03-17T02:28:43;100249.94;;;15.47;74.30
50368;BME280;36281;34.132;-118.018;2023-03-17T02:31:13;100248.66;;;15.38;74.73
50368;BME280;36281;34.132;-118.018;2023-03-17T02:33:42;100263.97;;;15.43;75.65
50368;BME280;36281;34.132;-118.018;2023-03-17T02:36:11;100260.72;;;15.41;75.76
50368;BME280;36281;34.132;-118.018;2023-03-17T02:38:41;100266.75;;;15.36;76.16
50368;BME280;36281;34.132;-118.018;2023-03-17T02:41:11;100259.47;;;15.32;77.27
50368;BME280;36281;34.132;-118.018;2023-03-17T02:43:41;100260.97;;;15.28;77.03
50368;BME280;36281;34.132;-118.018;2023-03-17T02:46:10;100256.91;;;15.25;77.28
50368;BME280;36281;34.132;-118.018;2023-03-17T02:48:39;100251.09;;;15.16;77.27
50368;BME280;36281;34.132;-118.018;2023-03-17T02:51:09;100258.28;;;15.16;77.15
50368;BME280;36281;34.132;-118.018;2023-03-17T02:53:38;100271.97;;;15.08;77.02
50368;BME280;36281;34.132;-118.018;2023-03-17T02:56:07;100272.06;;;15.01;76.17
50368;BME280;36281;34.132;-118.018;2023-03-17T02:58:39;100277.97;;;14.91;75.33
50368;BME280;36281;34.132;-118.018;2023-03-17T03:01:08;100267.31;;;14.80;74.42
50368;BME280;36281;34.132;-118.018;2023-03-17T03:03:38;100276.59;;;14.77;74.23
50368;BME280;36281;34.132;-118.018;2023-03-17T03:06:07;100285.28;;;14.72;74.30
50368;BME280;36281;34.132;-118.018;2023-03-17T03:08:36;100280.25;;;14.64;74.69
50368;BME280;36281;34.132;-118.018;2023-03-17T03:11:07;100279.31;;;14.59;74.74
50368;BME280;36281;34.132;-118.018;2023-03-17T03:13:38;100278.00;;;14.50;74.89
50368;BME280;36281;34.132;-118.018;2023-03-17T03:16:07;100279.34;;;14.40;75.05
50368;BME280;36281;34.132;-118.018;2023-03-17T03:18:37;100285.81;;;14.33;75.15
50368;BME280;36281;34.132;-118.018;2023-03-17T03:21:06;100279.53;;;14.27;75.58
50368;BME280;36281;34.132;-118.018;2023-03-17T03:23:35;100268.69;;;14.10;75.69
50368;BME280;36281;34.132;-118.018;2023-03-17T03:26:04;100279.69;;;14.14;76.14
50368;BME280;36281;34.132;-118.018;2023-03-17T03:28:33;100282.81;;;14.11;76.37
50368;BME280;36281;34.132;-118.018;2023-03-17T03:31:04;100291.94;;;14.03;76.87
50368;BME280;36281;34.132;-118.018;2023-03-17T03:33:34;100303.25;;;13.99;77.04
50368;BME280;36281;34.132;-118.018;2023-03-17T03:36:04;100299.63;;;13.93;77.51
50368;BME280;36281;34.132;-118.018;2023-03-17T03:38:34;100299.69;;;13.86;77.74
50368;BME280;36281;34.132;-118.018;2023-03-17T03:41:03;100303.47;;;13.79;77.96
50368;BME280;36281;34.132;-118.018;2023-03-17T03:43:32;100305.38;;;13.71;78.52
50368;BME280;36281;34.132;-118.018;2023-03-17T03:46:03;100310.56;;;13.66;78.86
50368;BME280;36281;34.132;-118.018;2023-03-17T03:48:33;100301.31;;;13.51;78.92
50368;BME280;36281;34.132;-118.018;2023-03-17T03:51:02;100326.03;;;13.58;79.21
50368;BME280;36281;34.132;-118.018;2023-03-17T03:53:31;100315.81;;;13.55;79.38
50368;BME280;36281;34.132;-118.018;2023-03-17T03:56:00;100319.34;;;13.49;79.42
50368;BME280;36281;34.132;-118.018;2023-03-17T03:58:30;100327.19;;;13.43;79.84
50368;BME280;36281;34.132;-118.018;2023-03-17T04:01:05;100337.19;;;13.41;79.52
50368;BME280;36281;34.132;-118.018;2023-03-17T04:03:35;100343.19;;;13.37;80.16
50368;BME280;36281;34.132;-118.018;2023-03-17T04:06:04;100343.81;;;13.32;80.83
50368;BME280;36281;34.132;-118.018;2023-03-17T04:08:33;100351.28;;;13.24;81.16
50368;BME280;36281;34.132;-118.018;2023-03-17T04:11:03;100359.88;;;13.19;81.44
50368;BME280;36281;34.132;-118.018;2023-03-17T04:13:32;100367.69;;;13.14;81.73
50368;BME280;36281;34.132;-118.018;2023-03-17T04:16:01;100375.50;;;13.09;82.07
50368;BME280;36281;34.132;-118.018;2023-03-17T04:18:32;100371.69;;;12.98;82.59
50368;BME280;36281;34.132;-118.018;2023-03-17T04:21:01;100390.31;;;12.98;82.89
50368;BME280;36281;34.132;-118.018;2023-03-17T04:23:30;100385.25;;;12.90;83.32
50368;BME280;36281;34.132;-118.018;2023-03-17T04:25:59;100386.09;;;12.84;83.76
50368;BME280;36281;34.132;-118.018;2023-03-17T04:28:28;100387.16;;;12.76;83.69
50368;BME280;36281;34.132;-118.018;2023-03-17T04:30:57;100383.50;;;12.71;84.28
50368;BME280;36281;34.132;-118.018;2023-03-17T04:33:26;100393.75;;;12.67;84.70
50368;BME280;36281;34.132;-118.018;2023-03-17T04:35:57;100399.50;;;12.57;84.97
50368;BME280;36281;34.132;-118.018;2023-03-17T04:38:27;100404.22;;;12.55;84.77
50368;BME280;36281;34.132;-118.018;2023-03-17T04:40:55;100409.38;;;12.50;85.53
50368;BME280;36281;34.132;-118.018;2023-03-17T04:43:25;100414.72;;;12.44;85.77
50368;BME280;36281;34.132;-118.018;2023-03-17T04:45:54;100416.78;;;12.35;86.30
50368;BME280;36281;34.132;-118.018;2023-03-17T04:48:23;100430.50;;;12.25;86.29
50368;BME280;36281;34.132;-118.018;2023-03-17T04:50:52;100427.03;;;12.18;87.02
50368;BME280;36281;34.132;-118.018;2023-03-17T04:53:23;100428.31;;;12.09;87.31
50368;BME280;36281;34.132;-118.018;2023-03-17T04:55:52;100437.69;;;12.05;88.04
50368;BME280;36281;34.132;-118.018;2023-03-17T04:58:21;100443.41;;;12.02;88.46
50368;BME280;36281;34.132;-118.018;2023-03-17T05:00:57;100447.91;;;12.01;88.56
50368;BME280;36281;34.132;-118.018;2023-03-17T05:03:26;100443.66;;;11.94;88.48
50368;BME280;36281;34.132;-118.018;2023-03-17T05:05:55;100443.44;;;11.95;88.84
50368;BME280;36281;34.132;-118.018;2023-03-17T05:08:26;100442.63;;;11.95;88.76
50368;BME280;36281;34.132;-118.018;2023-03-17T05:10:56;100450.38;;;11.89;88.83
50368;BME280;36281;34.132;-118.018;2023-03-17T05:13:26;100448.13;;;11.86;89.18
50368;BME280;36281;34.132;-118.018;2023-03-17T05:15:55;100448.91;;;11.80;89.16
50368;BME280;36281;34.132;-118.018;2023-03-17T05:18:25;100447.09;;;11.81;89.60
50368;BME280;36281;34.132;-118.018;2023-03-17T05:20:54;100450.13;;;11.78;89.92
50368;BME280;36281;34.132;-118.018;2023-03-17T05:23:25;100451.38;;;11.75;89.93
50368;BME280;36281;34.132;-118.018;2023-03-17T05:25:54;100455.88;;;11.75;90.36
50368;BME280;36281;34.132;-118.018;2023-03-17T05:28:23;100441.97;;;11.73;90.67
50368;BME280;36281;34.132;-118.018;2023-03-17T05:30:52;100450.97;;;11.72;90.93
50368;BME280;36281;34.132;-118.018;2023-03-17T05:33:21;100440.97;;;11.67;90.64
50368;BME280;36281;34.132;-118.018;2023-03-17T05:35:50;100443.59;;;11.67;90.92
50368;BME280;36281;34.132;-118.018;2023-03-17T05:38:19;100444.44;;;11.61;91.28
50368;BME280;36281;34.132;-118.018;2023-03-17T05:40:50;100446.88;;;11.62;91.15
50368;BME280;36281;34.132;-118.018;2023-03-17T05:43:20;100438.94;;;11.49;91.28
50368;BME280;36281;34.132;-118.018;2023-03-17T05:45:49;100456.47;;;11.57;91.42
50368;BME280;36281;34.132;-118.018;2023-03-17T05:48:18;100445.44;;;11.47;91.21
50368;BME280;36281;34.132;-118.018;2023-03-17T05:50:47;100454.22;;;11.41;91.58
50368;BME280;36281;34.132;-118.018;2023-03-17T05:53:17;100455.63;;;11.36;92.35
50368;BME280;36281;34.132;-118.018;2023-03-17T05:55:46;100462.78;;;11.36;92.49
50368;BME280;36281;34.132;-118.018;2023-03-17T05:58:16;100463.59;;;11.36;92.49
50368;BME280;36281;34.132;-118.018;2023-03-17T06:00:46;100465.00;;;11.32;92.37
50368;BME280;36281;34.132;-118.018;2023-03-17T06:03:14;100476.03;;;11.36;92.96
50368;BME280;36281;34.132;-118.018;2023-03-17T06:05:44;100464.78;;;11.27;93.51
50368;BME280;36281;34.132;-118.018;2023-03-17T06:08:13;100466.84;;;11.32;93.78
50368;BME280;36281;34.132;-118.018;2023-03-17T06:10:42;100466.63;;;11.33;94.27
50368;BME280;36281;34.132;-118.018;2023-03-17T06:13:11;100466.63;;;11.33;94.14
50368;BME280;36281;34.132;-118.018;2023-03-17T06:15:49;100461.16;;;11.35;94.24
50368;BME280;36281;34.132;-118.018;2023-03-17T06:18:21;100466.63;;;11.33;94.22
50368;BME280;36281;34.132;-118.018;2023-03-17T06:20:50;100462.34;;;11.32;94.24
50368;BME280;36281;34.132;-118.018;2023-03-17T06:23:19;100465.59;;;11.28;94.42
50368;BME280;36281;34.132;-118.018;2023-03-17T06:25:51;100470.31;;;11.26;94.67
50368;BME280;36281;34.132;-118.018;2023-03-17T06:28:20;100470.31;;;11.19;94.68
50368;BME280;36281;34.132;-118.018;2023-03-17T06:30:51;100457.22;;;11.18;94.83
50368;BME280;36281;34.132;-118.018;2023-03-17T06:33:20;100463.34;;;11.18;94.76
50368;BME280;36281;34.132;-118.018;2023-03-17T06:35:49;100462.53;;;11.18;94.55
50368;BME280;36281;34.132;-118.018;2023-03-17T06:38:19;100460.09;;;11.16;94.33
50368;BME280;36281;34.132;-118.018;2023-03-17T06:40:48;100461.28;;;11.13;94.10
50368;BME280;36281;34.132;-118.018;2023-03-17T06:43:17;100452.94;;;11.10;94.16
50368;BME280;36281;34.132;-118.018;2023-03-17T06:45:47;100452.31;;;11.08;94.23
50368;BME280;36281;34.132;-118.018;2023-03-17T06:48:17;100443.97;;;11.04;94.19
50368;BME280;36281;34.132;-118.018;2023-03-17T06:50:46;100449.88;;;11.00;94.19
50368;BME280;36281;34.132;-118.018;2023-03-17T06:53:16;100448.63;;;10.96;93.95
50368;BME280;36281;34.132;-118.018;2023-03-17T06:55:46;100436.56;;;10.86;93.85
50368;BME280;36281;34.132;-118.018;2023-03-17T06:58:15;100391.03;;;10.56;94.30
50368;BME280;36281;34.132;-118.018;2023-03-17T07:00:44;100456.34;;;10.91;94.66
50368;BME280;36281;34.132;-118.018;2023-03-17T07:03:16;100446.56;;;10.84;94.51
50368;BME280;36281;34.132;-118.018;2023-03-17T07:05:45;100457.53;;;10.81;94.14
50368;BME280;36281;34.132;-118.018;2023-03-17T07:08:14;100447.16;;;10.80;94.26
50368;BME280;36281;34.132;-118.018;2023-03-17T07:10:43;100430.63;;;10.71;94.53
50368;BME280;36281;34.132;-118.018;2023-03-17T07:13:13;100439.97;;;10.74;94.26
50368;BME280;36281;34.132;-118.018;2023-03-17T07:15:44;100437.09;;;10.69;94.32
50368;BME280;36281;34.132;-118.018;2023-03-17T07:18:13;100433.84;;;10.67;94.71
50368;BME280;36281;34.132;-118.018;2023-03-17T07:20:44;100445.66;;;10.64;94.82
50368;BME280;36281;34.132;-118.018;2023-03-17T07:23:15;100437.09;;;10.62;95.01
50368;BME280;36281;34.132;-118.018;2023-03-17T07:25:46;100433.84;;;10.60;94.70
50368;BME280;36281;34.132;-118.018;2023-03-17T07:28:15;100433.19;;;10.58;94.91
50368;BME280;36281;34.132;-118.018;2023-03-17T07:30:44;100430.97;;;10.55;95.28
50368;BME280;36281;34.132;-118.018;2023-03-17T07:33:14;100425.44;;;10.50;95.16
50368;BME280;36281;34.132;-118.018;2023-03-17T07:35:50;100425.63;;;10.48;95.02
50368;BME280;36281;34.132;-118.018;2023-03-17T07:38:20;100431.94;;;10.47;95.00
50368;BME280;36281;34.132;-118.018;2023-03-17T07:40:49;100421.94;;;10.43;95.34
50368;BME280;36281;34.132;-118.018;2023-03-17T07:43:20;100423.97;;;10.41;95.02
50368;BME280;36281;34.132;-118.018;2023-03-17T07:45:49;100421.72;;;10.38;94.80
50368;BME280;36281;34.132;-118.018;2023-03-17T07:48:18;100420.91;;;10.37;94.91
50368;BME280;36281;34.132;-118.018;2023-03-17T07:50:49;100421.47;;;10.32;94.70
50368;BME280;36281;34.132;-118.018;2023-03-17T07:53:18;100421.25;;;10.27;94.94
50368;BME280;36281;34.132;-118.018;2023-03-17T07:55:47;100425.72;;;10.27;94.88
50368;BME280;36281;34.132;-118.018;2023-03-17T07:58:16;100427.09;;;10.23;95.22
50368;BME280;36281;34.132;-118.018;2023-03-17T08:00:46;100423.03;;;10.20;95.45
50368;BME280;36281;34.132;-118.018;2023-03-17T08:03:15;100419.75;;;10.18;95.20
50368;BME280;36281;34.132;-118.018;2023-03-17T08:05:44;100413.84;;;10.16;95.31
50368;BME280;36281;34.132;-118.018;2023-03-17T08:08:20;100411.97;;;10.10;95.33
50368;BME280;36281;34.132;-118.018;2023-03-17T08:10:49;100415.22;;;10.12;95.43
50368;BME280;36281;34.132;-118.018;2023-03-17T08:13:19;100414.63;;;10.10;95.45
50368;BME280;36281;34.132;-118.018;2023-03-17T08:15:48;100414.63;;;10.10;95.46
50368;BME280;36281;34.132;-118.018;2023-03-17T08:18:17;100410.53;;;10.07;95.45
50368;BME280;36281;34.132;-118.018;2023-03-17T08:20:46;100411.34;;;10.08;95.80
50368;BME280;36281;34.132;-118.018;2023-03-17T08:23:15;100419.47;;;10.06;95.70
50368;BME280;36281;34.132;-118.018;2023-03-17T08:25:46;100409.09;;;10.05;95.98
50368;BME280;36281;34.132;-118.018;2023-03-17T08:28:16;100407.84;;;10.01;95.80
50368;BME280;36281;34.132;-118.018;2023-03-17T08:30:45;100402.94;;;9.98;95.66
50368;BME280;36281;34.132;-118.018;2023-03-17T08:33:17;100394.38;;;9.96;95.44
50368;BME280;36281;34.132;-118.018;2023-03-17T08:35:46;100398.44;;;9.92;95.57
50368;BME280;36281;34.132;-118.018;2023-03-17T08:38:15;100403.09;;;9.90;95.24
50368;BME280;36281;34.132;-118.018;2023-03-17T08:40:46;100393.28;;;9.83;95.44
50368;BME280;36281;34.132;-118.018;2023-03-17T08:43:17;100385.91;;;9.79;95.65
50368;BME280;36281;34.132;-118.018;2023-03-17T08:45:46;100391.78;;;9.74;95.81
50368;BME280;36281;34.132;-118.018;2023-03-17T08:48:15;100383.03;;;9.74;95.97
50368;BME280;36281;34.132;-118.018;2023-03-17T08:50:44;100388.53;;;9.72;96.34
50368;BME280;36281;34.132;-118.018;2023-03-17T08:53:14;100386.09;;;9.71;96.32
50368;BME280;36281;34.132;-118.018;2023-03-17T08:55:43;100386.91;;;9.71;96.26
50368;BME280;36281;34.132;-118.018;2023-03-17T08:58:14;100385.66;;;9.67;96.24
50368;BME280;36281;34.132;-118.018;2023-03-17T09:00:43;100381.38;;;9.66;95.73
50368;BME280;36281;34.132;-118.018;2023-03-17T09:03:14;100370.34;;;9.63;95.79
50368;BME280;36281;34.132;-118.018;2023-03-17T09:05:43;100380.94;;;9.63;95.89
50368;BME280;36281;34.132;-118.018;2023-03-17T09:08:12;100378.50;;;9.61;96.09
50368;BME280;36281;34.132;-118.018;2023-03-17T09:10:42;100372.75;;;9.57;95.79
50368;BME280;36281;34.132;-118.018;2023-03-17T09:13:13;100362.31;;;9.49;95.81
50368;BME280;36281;34.132;-118.018;2023-03-17T09:15:42;100365.41;;;9.53;95.59
50368;BME280;36281;34.132;-118.018;2023-03-17T09:18:12;100369.06;;;9.52;95.70
50368;BME280;36281;34.132;-118.018;2023-03-17T09:20:42;100348.69;;;9.46;95.88
50368;BME280;36281;34.132;-118.018;2023-03-17T09:23:12;100354.38;;;9.49;96.03
50368;BME280;36281;34.132;-118.018;2023-03-17T09:25:41;100347.06;;;9.45;95.94
50368;BME280;36281;34.132;-118.018;2023-03-17T09:28:11;100351.91;;;9.41;95.74
50368;BME280;36281;34.132;-118.018;2023-03-17T09:30:42;100351.47;;;9.38;95.11
50368;BME280;36281;34.132;-118.018;2023-03-17T09:33:12;100354.31;;;9.36;95.23
50368;BME280;36281;34.132;-118.018;2023-03-17T09:35:41;100363.25;;;9.35;94.61
50368;BME280;36281;34.132;-118.018;2023-03-17T09:38:10;100360.97;;;9.32;94.67
50368;BME280;36281;34.132;-118.018;2023-03-17T09:40:46;100353.97;;;9.24;94.65
50368;BME280;36281;34.132;-118.018;2023-03-17T09:43:23;100355.97;;;9.16;94.79
50368;BME280;36281;34.132;-118.018;2023-03-17T09:45:56;100355.16;;;9.15;95.02
50368;BME280;36281;34.132;-118.018;2023-03-17T09:48:51;100354.97;;;9.17;95.20
50368;BME280;36281;34.132;-118.018;2023-03-17T09:51:21;100346.78;;;9.12;95.20
50368;BME280;36281;34.132;-118.018;2023-03-17T09:53:55;100343.31;;;9.11;95.03
50368;BME280;36281;34.132;-118.018;2023-03-17T09:56:29;100350.44;;;9.11;95.26
50368;BME280;36281;34.132;-118.018;2023-03-17T09:59:03;100348.16;;;9.07;95.43
50368;BME280;36281;34.132;-118.018;2023-03-17T10:01:35;100344.25;;;9.03;95.77
50368;BME280;36281;34.132;-118.018;2023-03-17T10:04:09;100338.13;;;8.96;96.05
50368;BME280;36281;34.132;-118.018;2023-03-17T10:06:41;100338.28;;;8.95;96.22
50368;BME280;36281;34.132;-118.018;2023-03-17T10:09:17;100309.50;;;8.78;96.37
50368;BME280;36281;34.132;-118.018;2023-03-17T10:12:01;100335.63;;;8.95;96.38
50368;BME280;36281;34.132;-118.018;2023-03-17T10:14:45;100327.47;;;8.90;96.42
50368;BME280;36281;34.132;-118.018;2023-03-17T10:17:21;100328.31;;;8.90;96.48
50368;BME280;36281;34.132;-118.018;2023-03-17T10:19:56;100316.66;;;8.85;96.42
50368;BME280;36281;34.132;-118.018;2023-03-17T10:22:29;100301.31;;;8.73;95.99
50368;BME280;36281;34.132;-118.018;2023-03-17T10:25:03;100312.63;;;8.89;96.18
50368;BME280;36281;34.132;-118.018;2023-03-17T10:27:36;100306.94;;;8.85;96.15
50368;BME280;36281;34.132;-118.018;2023-03-17T10:30:13;100317.88;;;8.82;95.96
50368;BME280;36281;34.132;-118.018;2023-03-17T10:32:45;100311.75;;;8.82;95.98
50368;BME280;36281;34.132;-118.018;2023-03-17T10:35:15;100313.75;;;8.79;96.10
50368;BME280;36281;34.132;-118.018;2023-03-17T10:37:46;100304.41;;;8.77;95.95
50368;BME280;36281;34.132;-118.018;2023-03-17T10:40:21;100294.84;;;8.76;96.03
50368;BME280;36281;34.132;-118.018;2023-03-17T10:42:53;100288.94;;;8.74;95.86
50368;BME280;36281;34.132;-118.018;2023-03-17T10:45:26;100290.94;;;8.72;96.00
50368;BME280;36281;34.132;-118.018;2023-03-17T10:47:59;100283.22;;;8.70;95.85
50368;BME280;36281;34.132;-118.018;2023-03-17T10:50:30;100281.56;;;8.69;96.00
50368;BME280;36281;34.132;-118.018;2023-03-17T10:53:04;100277.50;;;8.67;96.00
50368;BME280;36281;34.132;-118.018;2023-03-17T10:55:40;100275.06;;;8.65;95.61
50368;BME280;36281;34.132;-118.018;2023-03-17T10:58:14;100274.59;;;8.62;95.55
50368;BME280;36281;34.132;-118.018;2023-03-17T11:00:52;100271.06;;;8.54;95.62
50368;BME280;36281;34.132;-118.018;2023-03-17T11:03:25;100284.72;;;8.58;95.58
50368;BME280;36281;34.132;-118.018;2023-03-17T11:05:57;100286.75;;;8.56;95.62
50368;BME280;36281;34.132;-118.018;2023-03-17T11:08:31;100288.69;;;8.47;95.55
50368;BME280;36281;34.132;-118.018;2023-03-17T11:11:05;100289.03;;;8.44;95.75
50368;BME280;36281;34.132;-118.018;2023-03-17T11:13:35;100296.53;;;8.41;95.47
50368;BME280;36281;34.132;-118.018;2023-03-17T11:16:12;100291.63;;;8.38;96.00
50368;BME280;36281;34.132;-118.018;2023-03-17T11:18:48;100285.53;;;8.37;95.69
50368;BME280;36281;34.132;-118.018;2023-03-17T11:21:22;100275.88;;;8.29;95.68
50368;BME280;36281;34.132;-118.018;2023-03-17T11:23:55;100283.22;;;8.34;96.16
50368;BME280;36281;34.132;-118.018;2023-03-17T11:26:51;100269.78;;;8.29;96.30
50368;BME280;36281;34.132;-118.018;2023-03-17T11:32:25;100278.13;;;8.33;96.64
50368;BME280;36281;34.132;-118.018;2023-03-17T11:35:27;100285.25;;;8.32;96.85
50368;BME280;36281;34.132;-118.018;2023-03-17T11:38:16;100281.13;;;8.29;96.62
50368;BME280;36281;34.132;-118.018;2023-03-17T11:41:04;100281.78;;;8.32;96.73
50368;BME280;36281;34.132;-118.018;2023-03-17T11:43:47;100276.50;;;8.32;96.58
50368;BME280;36281;34.132;-118.018;2023-03-17T11:46:23;100271.97;;;8.25;96.06
50368;BME280;36281;34.132;-118.018;2023-03-17T11:48:58;100268.50;;;8.25;95.86
50368;BME280;36281;34.132;-118.018;2023-03-17T11:51:34;100271.34;;;8.23;95.80
50368;BME280;36281;34.132;-118.018;2023-03-17T11:54:11;100278.63;;;8.21;95.65
50368;BME280;36281;34.132;-118.018;2023-03-17T11:56:46;100278.38;;;8.16;95.70
50368;BME280;36281;34.132;-118.018;2023-03-17T11:59:25;100283.00;;;8.14;95.82
50368;BME280;36281;34.132;-118.018;2023-03-17T12:02:00;100285.03;;;8.12;95.71
50368;BME280;36281;34.132;-118.018;2023-03-17T12:04:34;100285.38;;;8.09;95.37
50368;BME280;36281;34.132;-118.018;2023-03-17T12:07:15;100284.09;;;8.05;95.44
50368;BME280;36281;34.132;-118.018;2023-03-17T12:09:55;100291.31;;;7.96;95.58
50368;BME280;36281;34.132;-118.018;2023-03-17T12:12:30;100294.22;;;8.01;95.97
50368;BME280;36281;34.132;-118.018;2023-03-17T12:15:03;100278.69;;;7.92;96.36
50368;BME280;36281;34.132;-118.018;2023-03-17T12:17:36;100289.94;;;8.00;96.33
50368;BME280;36281;34.132;-118.018;2023-03-17T12:20:11;100299.41;;;7.95;96.19
50368;BME280;36281;34.132;-118.018;2023-03-17T12:22:49;100297.03;;;8.00;96.39
50368;BME280;36281;34.132;-118.018;2023-03-17T12:25:29;100296.22;;;7.99;96.83
50368;BME280;36281;34.132;-118.018;2023-03-17T12:28:03;100295.59;;;7.97;96.88
50368;BME280;36281;34.132;-118.018;2023-03-17T12:30:37;100297.78;;;7.94;97.08
50368;BME280;36281;34.132;-118.018;2023-03-17T12:33:20;100297.41;;;7.97;97.08
50368;BME280;36281;34.132;-118.018;2023-03-17T12:35:52;100297.22;;;7.98;97.29
50368;BME280;36281;34.132;-118.018;2023-03-17T12:38:28;100298.97;;;7.91;97.47
50368;BME280;36281;34.132;-118.018;2023-03-17T12:41:14;100308.31;;;7.94;97.31
50368;BME280;36281;34.132;-118.018;2023-03-17T12:43:59;100303.59;;;7.89;97.08
50368;BME280;36281;34.132;-118.018;2023-03-17T12:46:46;100302.16;;;7.87;97.14
50368;BME280;36281;34.132;-118.018;2023-03-17T12:49:33;100302.16;;;7.87;96.98
50368;BME280;36281;34.132;-118.018;2023-03-17T12:52:15;100302.78;;;7.89;97.14